Ital Oriente — A8LN2 — position and weather

sailwx.info

Track history (hours):
 
Tides and Currents Weather Stations Pressure Air Temp Water Temp Dewpoint Dewpoint Depression Visibility Wind Speed Wind Dir Waves Ship Positions

Ital Oriente

Last reported at 2018-Apr-21 12:00 UTC. Time now 2018-Apr-21 15:43 UTC.
Position N 35°42' W 006°36'.

Length 227 m; draft 10 m.

Type: Cargo ship. MMSI: 636091278.

Wind from 050 at 5 knots

Barometer 1014.8 mb
Air temperature 18.0 ° C
Visibility: greater than 5.4 NM
Dewpoint 11.3 ° C
Water temperature 16.8 ° C

Date/timePositionNaut miles runAvg speedWind from/ knotsBaromVisibWave heightAir tempDewpointWater temp
2018-Apr-21 12:00N 35°42' W 006°36'   050 / 51014.8 5.4 18.011.316.8
2018-Apr-17 19:00N 33°42' W 007°36'0 0.0 050 / 121019.0 5.4 20.020.018.0
2018-Apr-17 07:00N 33°42' W 007°36'104 8.7 090 / 101022.0 5.4 15.015.018.0
2018-Apr-16 19:00N 35°18' W 008°24'8912.8 120 / 151022.010.8 17.013.515.0
2018-Apr-16 12:00N 36°36' W 009°18'7615.2 170 / 71022.9 5.4 17.0 7.115.0
2018-Apr-16 07:00N 37°48' W 009°48'1314.4 210 / 201021.010.8 14.014.013.0
2018-Apr-16 06:06N 37°60' W 009°55'513.9
2018-Apr-16 05:46N 38°04' W 009°56'1413.7
2018-Apr-16 04:46N 38°17' W 010°01'413.8
2018-Apr-16 04:30N 38°21' W 010°02'713.9
2018-Apr-16 04:00N 38°28' W 010°03'714.3
2018-Apr-16 03:31N 38°35' W 010°05'714.2
2018-Apr-16 03:00N 38°42' W 010°07'714.0
2018-Apr-16 02:30N 38°49' W 010°07'713.9
2018-Apr-16 02:01N 38°56' W 010°08'713.5
2018-Apr-16 01:31N 39°02' W 010°08'713.6
2018-Apr-16 01:01N 39°09' W 010°08'8113.4
2018-Apr-15 19:00N 40°30' W 010°06'11416.3 210 / 141018.010.8 14.014.013.0
2018-Apr-15 12:00N 42°24' W 010°06'34419.1 250 / 161016.8 2.2 15.0 8.512.2
2018-Apr-14 18:00N 47°36' W 006°42'8719.9 190 / 451010.0 5.4 12.012.010.9
2018-Apr-14 13:38N 48°55' W 005°47'1018.6
2018-Apr-14 13:07N 49°00' W 005°35'419.0
2018-Apr-14 12:55N 49°02' W 005°31'819.1
2018-Apr-14 12:30N 49°06' W 005°20'6416.6
2018-Apr-14 08:38N 49°36' W 003°53'215.9
2018-Apr-14 08:30N 49°38' W 003°51'1015.6
2018-Apr-14 07:53N 49°43' W 003°38'814.6
2018-Apr-14 07:20N 49°47' W 003°28'412.4
2018-Apr-14 07:00N 49°49' W 003°22'712.1
2018-Apr-14 06:24N 49°52' W 003°12'511.8
2018-Apr-14 05:58N 49°55' W 003°05'511.6
2018-Apr-14 05:30N 49°58' W 002°58'611.6
2018-Apr-14 05:00N 49°60' W 002°50'612.0
2018-Apr-14 04:30N 50°01' W 002°40'612.4
2018-Apr-14 04:00N 50°02' W 002°31'913.2
2018-Apr-14 03:19N 50°05' W 002°17'514.1
2018-Apr-14 02:56N 50°06' W 002°09'614.8
2018-Apr-14 02:30N 50°08' W 001°60'815.6
2018-Apr-14 02:00N 50°10' W 001°48'816.1
2018-Apr-14 01:30N 50°13' W 001°36'816.3
2018-Apr-14 01:00N 50°15' W 001°24'816.4
2018-Apr-14 00:31N 50°17' W 001°12'816.3
2018-Apr-14 00:00N 50°19' W 000°59'915.3
2018-Apr-13 23:24N 50°22' W 000°45'614.8
2018-Apr-13 23:00N 50°23' W 000°37'714.4
2018-Apr-13 22:30N 50°25' W 000°26'713.9
2018-Apr-13 22:00N 50°27' W 000°15'713.3
2018-Apr-13 21:30N 50°29' W 000°05'612.7
2018-Apr-13 21:00N 50°30' E 000°05'612.3
2018-Apr-13 20:30N 50°32' E 000°14'611.9
2018-Apr-13 20:00N 50°34' E 000°23'611.6
2018-Apr-13 19:31N 50°36' E 000°31'611.7
2018-Apr-13 19:01N 50°39' E 000°39'612.6
2018-Apr-13 18:31N 50°43' E 000°47'713.4
2018-Apr-13 18:01N 50°47' E 000°55'714.3
2018-Apr-13 17:30N 50°52' E 001°04'815.0
2018-Apr-13 17:00N 50°57' E 001°13'815.5
2018-Apr-13 16:30N 51°02' E 001°22'815.2
2018-Apr-13 16:00N 51°06' E 001°32'714.2
2018-Apr-13 15:30N 51°11' E 001°40'713.3
2018-Apr-13 15:00N 51°16' E 001°48'612.7
2018-Apr-13 14:30N 51°22' E 001°52'612.0
2018-Apr-13 14:00N 51°27' E 001°56'611.6
2018-Apr-13 13:30N 51°32' E 002°02'611.7
2018-Apr-13 13:00N 51°36' E 002°09'611.5
2018-Apr-13 12:30N 51°40' E 002°15'611.5
2018-Apr-13 12:00N 51°45' E 002°21'7613.4
2018-Apr-13 06:21N 52°43' E 003°39'2313.4
2018-Apr-13 04:38N 53°00' E 004°05'412.8
2018-Apr-13 04:17N 53°03' E 004°10'412.4
2018-Apr-13 03:58N 53°05' E 004°16'612.1
2018-Apr-13 03:29N 53°09' E 004°23'611.8
2018-Apr-13 02:58N 53°15' E 004°27'2011.9
2018-Apr-13 01:16N 53°31' E 004°47'413.8
2018-Apr-13 01:00N 53°32' E 004°53'714.2
2018-Apr-13 00:30N 53°35' E 005°04'10813.6
2018-Apr-12 16:36N 54°01' E 008°01'513.4
2018-Apr-12 16:11N 54°01' E 008°10'312.9
2018-Apr-12 15:58N 54°00' E 008°15'815.7
2018-Apr-12 15:29N 53°59' E 008°28'816.9
2018-Apr-12 15:00N 53°55' E 008°40'816.1
2018-Apr-12 14:30N 53°50' E 008°51'816.9
2018-Apr-12 14:00N 53°52' E 009°04'713.0
2018-Apr-12 13:30N 53°52' E 009°16'714.4
2018-Apr-12 13:00N 53°47' E 009°23'611.8
2018-Apr-12 12:30N 53°42' E 009°30'510.8
2018-Apr-12 12:00N 53°37' E 009°33'510.9
2018-Apr-12 11:31N 53°34' E 009°40'4 8.7
2018-Apr-12 11:00N 53°33' E 009°48'4 7.6
2018-Apr-12 10:30N 53°33' E 009°54'3 4.9
2018-Apr-12 09:58N 53°30' E 009°56'0 0.0
2018-Apr-12 09:28N 53°30' E 009°56'0 0.0
2018-Apr-12 08:58N 53°30' E 009°56'0 0.0
2018-Apr-12 08:28N 53°30' E 009°56'0 0.0
2018-Apr-12 07:58N 53°30' E 009°56'0 0.0
2018-Apr-12 07:28N 53°30' E 009°56'0 0.0
2018-Apr-12 06:58N 53°30' E 009°56'0 0.0
2018-Apr-12 06:28N 53°30' E 009°56'0 0.0
2018-Apr-12 05:58N 53°30' E 009°56'0 0.0
2018-Apr-12 05:28N 53°30' E 009°56'0 0.0
2018-Apr-12 04:58N 53°30' E 009°56'0 0.0
2018-Apr-12 04:28N 53°30' E 009°56'0 0.0
2018-Apr-12 03:58N 53°30' E 009°56'0 0.0
2018-Apr-12 03:28N 53°30' E 009°56'0 0.0
2018-Apr-12 02:58N 53°30' E 009°56'0 0.0
2018-Apr-12 02:28N 53°30' E 009°56'0 0.0
2018-Apr-12 01:58N 53°30' E 009°56'0 0.0
2018-Apr-12 01:28N 53°30' E 009°56'0 0.0
2018-Apr-12 00:58N 53°30' E 009°56'0 0.0
2018-Apr-12 00:28N 53°30' E 009°56'0 0.0
2018-Apr-11 23:58N 53°30' E 009°56'0 0.0
2018-Apr-11 23:28N 53°30' E 009°56'0 0.0
2018-Apr-11 22:58N 53°30' E 009°56'0 0.0
2018-Apr-11 22:28N 53°30' E 009°56'0 0.0
2018-Apr-11 21:58N 53°30' E 009°56'0 0.0
2018-Apr-11 21:29N 53°30' E 009°56'0 0.0
2018-Apr-11 20:59N 53°30' E 009°56'0 0.3
2018-Apr-11 20:30N 53°30' E 009°56'2 4.7
2018-Apr-11 20:00N 53°32' E 009°55'510.2
2018-Apr-11 19:30N 53°33' E 009°47'612.1
2018-Apr-11 19:00N 53°35' E 009°37'612.6
2018-Apr-11 18:30N 53°40' E 009°31'612.4
2018-Apr-11 18:00N 53°45' E 009°25'611.8
2018-Apr-11 17:30N 53°50' E 009°20'611.4
2018-Apr-11 17:00N 53°53' E 009°12'5 9.7
2018-Apr-11 16:30N 53°52' E 009°04'510.5
2018-Apr-11 16:00N 53°51' E 008°55'511.0
2018-Apr-11 15:30N 53°51' E 008°46'611.2
2018-Apr-11 15:00N 53°55' E 008°40'611.8
2018-Apr-11 14:30N 53°58' E 008°31'612.3
2018-Apr-11 14:00N 53°59' E 008°21'611.8
2018-Apr-11 13:28N 53°59' E 008°10'510.3
2018-Apr-11 13:00N 53°59' E 008°02'711.0
2018-Apr-11 12:19N 53°57' E 007°50'  
Track history (hours):
 
Tides and Currents Weather Stations Pressure Air Temp Water Temp Dewpoint Dewpoint Depression Visibility Wind Speed Wind Dir Waves Ship Positions

Ital Oriente

Last reported at 2018-Apr-21 12:00 UTC. Time now 2018-Apr-21 15:43 UTC.
Position N 35°42' W 006°36'.

Length 227 m; draft 10 m.

Type: Cargo ship. MMSI: 636091278.

Wind from 050 at 5 knots

Barometer 1014.8 mb
Air temperature 18.0 ° C
Visibility: greater than 5.4 NM
Dewpoint 11.3 ° C
Water temperature 16.8 ° C

Date/timePositionNaut miles runAvg speedWind from/ knotsBaromVisibWave heightAir tempDewpointWater temp
2018-Apr-21 12:00N 35°42' W 006°36'   050 / 51014.8 5.4 18.011.316.8
2018-Apr-17 19:00N 33°42' W 007°36'0 0.0 050 / 121019.0 5.4 20.020.018.0
2018-Apr-17 07:00N 33°42' W 007°36'104 8.7 090 / 101022.0 5.4 15.015.018.0
2018-Apr-16 19:00N 35°18' W 008°24'8912.8 120 / 151022.010.8 17.013.515.0
2018-Apr-16 12:00N 36°36' W 009°18'7615.2 170 / 71022.9 5.4 17.0 7.115.0
2018-Apr-16 07:00N 37°48' W 009°48'1314.4 210 / 201021.010.8 14.014.013.0
2018-Apr-16 06:06N 37°60' W 009°55'513.9
2018-Apr-16 05:46N 38°04' W 009°56'1413.7
2018-Apr-16 04:46N 38°17' W 010°01'413.8
2018-Apr-16 04:30N 38°21' W 010°02'713.9
2018-Apr-16 04:00N 38°28' W 010°03'714.3
2018-Apr-16 03:31N 38°35' W 010°05'714.2
2018-Apr-16 03:00N 38°42' W 010°07'714.0
2018-Apr-16 02:30N 38°49' W 010°07'713.9
2018-Apr-16 02:01N 38°56' W 010°08'713.5
2018-Apr-16 01:31N 39°02' W 010°08'713.6
2018-Apr-16 01:01N 39°09' W 010°08'8113.4
2018-Apr-15 19:00N 40°30' W 010°06'11416.3 210 / 141018.010.8 14.014.013.0
2018-Apr-15 12:00N 42°24' W 010°06'34419.1 250 / 161016.8 2.2 15.0 8.512.2
2018-Apr-14 18:00N 47°36' W 006°42'8719.9 190 / 451010.0 5.4 12.012.010.9
2018-Apr-14 13:38N 48°55' W 005°47'1018.6
2018-Apr-14 13:07N 49°00' W 005°35'419.0
2018-Apr-14 12:55N 49°02' W 005°31'819.1
2018-Apr-14 12:30N 49°06' W 005°20'6416.6
2018-Apr-14 08:38N 49°36' W 003°53'215.9
2018-Apr-14 08:30N 49°38' W 003°51'1015.6
2018-Apr-14 07:53N 49°43' W 003°38'814.6
2018-Apr-14 07:20N 49°47' W 003°28'412.4
2018-Apr-14 07:00N 49°49' W 003°22'712.1
2018-Apr-14 06:24N 49°52' W 003°12'511.8
2018-Apr-14 05:58N 49°55' W 003°05'511.6
2018-Apr-14 05:30N 49°58' W 002°58'611.6
2018-Apr-14 05:00N 49°60' W 002°50'612.0
2018-Apr-14 04:30N 50°01' W 002°40'612.4
2018-Apr-14 04:00N 50°02' W 002°31'913.2
2018-Apr-14 03:19N 50°05' W 002°17'514.1
2018-Apr-14 02:56N 50°06' W 002°09'614.8
2018-Apr-14 02:30N 50°08' W 001°60'815.6
2018-Apr-14 02:00N 50°10' W 001°48'816.1
2018-Apr-14 01:30N 50°13' W 001°36'816.3
2018-Apr-14 01:00N 50°15' W 001°24'816.4
2018-Apr-14 00:31N 50°17' W 001°12'816.3
2018-Apr-14 00:00N 50°19' W 000°59'915.3
2018-Apr-13 23:24N 50°22' W 000°45'614.8
2018-Apr-13 23:00N 50°23' W 000°37'714.4
2018-Apr-13 22:30N 50°25' W 000°26'713.9
2018-Apr-13 22:00N 50°27' W 000°15'713.3
2018-Apr-13 21:30N 50°29' W 000°05'612.7
2018-Apr-13 21:00N 50°30' E 000°05'612.3
2018-Apr-13 20:30N 50°32' E 000°14'611.9
2018-Apr-13 20:00N 50°34' E 000°23'611.6
2018-Apr-13 19:31N 50°36' E 000°31'611.7
2018-Apr-13 19:01N 50°39' E 000°39'612.6
2018-Apr-13 18:31N 50°43' E 000°47'713.4
2018-Apr-13 18:01N 50°47' E 000°55'714.3
2018-Apr-13 17:30N 50°52' E 001°04'815.0
2018-Apr-13 17:00N 50°57' E 001°13'815.5
2018-Apr-13 16:30N 51°02' E 001°22'815.2
2018-Apr-13 16:00N 51°06' E 001°32'714.2
2018-Apr-13 15:30N 51°11' E 001°40'713.3
2018-Apr-13 15:00N 51°16' E 001°48'612.7
2018-Apr-13 14:30N 51°22' E 001°52'612.0
2018-Apr-13 14:00N 51°27' E 001°56'611.6
2018-Apr-13 13:30N 51°32' E 002°02'611.7
2018-Apr-13 13:00N 51°36' E 002°09'611.5
2018-Apr-13 12:30N 51°40' E 002°15'611.5
2018-Apr-13 12:00N 51°45' E 002°21'7613.4
2018-Apr-13 06:21N 52°43' E 003°39'2313.4
2018-Apr-13 04:38N 53°00' E 004°05'412.8
2018-Apr-13 04:17N 53°03' E 004°10'412.4
2018-Apr-13 03:58N 53°05' E 004°16'612.1
2018-Apr-13 03:29N 53°09' E 004°23'611.8
2018-Apr-13 02:58N 53°15' E 004°27'2011.9
2018-Apr-13 01:16N 53°31' E 004°47'413.8
2018-Apr-13 01:00N 53°32' E 004°53'714.2
2018-Apr-13 00:30N 53°35' E 005°04'10813.6
2018-Apr-12 16:36N 54°01' E 008°01'513.4
2018-Apr-12 16:11N 54°01' E 008°10'312.9
2018-Apr-12 15:58N 54°00' E 008°15'815.7
2018-Apr-12 15:29N 53°59' E 008°28'816.9
2018-Apr-12 15:00N 53°55' E 008°40'816.1
2018-Apr-12 14:30N 53°50' E 008°51'816.9
2018-Apr-12 14:00N 53°52' E 009°04'713.0
2018-Apr-12 13:30N 53°52' E 009°16'714.4
2018-Apr-12 13:00N 53°47' E 009°23'611.8
2018-Apr-12 12:30N 53°42' E 009°30'510.8
2018-Apr-12 12:00N 53°37' E 009°33'510.9
2018-Apr-12 11:31N 53°34' E 009°40'4 8.7
2018-Apr-12 11:00N 53°33' E 009°48'4 7.6
2018-Apr-12 10:30N 53°33' E 009°54'3 4.9
2018-Apr-12 09:58N 53°30' E 009°56'0 0.0
2018-Apr-12 09:28N 53°30' E 009°56'0 0.0
2018-Apr-12 08:58N 53°30' E 009°56'0 0.0
2018-Apr-12 08:28N 53°30' E 009°56'0 0.0
2018-Apr-12 07:58N 53°30' E 009°56'0 0.0
2018-Apr-12 07:28N 53°30' E 009°56'0 0.0
2018-Apr-12 06:58N 53°30' E 009°56'0 0.0
2018-Apr-12 06:28N 53°30' E 009°56'0 0.0
2018-Apr-12 05:58N 53°30' E 009°56'0 0.0
2018-Apr-12 05:28N 53°30' E 009°56'0 0.0
2018-Apr-12 04:58N 53°30' E 009°56'0 0.0
2018-Apr-12 04:28N 53°30' E 009°56'0 0.0
2018-Apr-12 03:58N 53°30' E 009°56'0 0.0
2018-Apr-12 03:28N 53°30' E 009°56'0 0.0
2018-Apr-12 02:58N 53°30' E 009°56'0 0.0
2018-Apr-12 02:28N 53°30' E 009°56'0 0.0
2018-Apr-12 01:58N 53°30' E 009°56'0 0.0
2018-Apr-12 01:28N 53°30' E 009°56'0 0.0
2018-Apr-12 00:58N 53°30' E 009°56'0 0.0
2018-Apr-12 00:28N 53°30' E 009°56'0 0.0
2018-Apr-11 23:58N 53°30' E 009°56'0 0.0
2018-Apr-11 23:28N 53°30' E 009°56'0 0.0
2018-Apr-11 22:58N 53°30' E 009°56'0 0.0
2018-Apr-11 22:28N 53°30' E 009°56'0 0.0
2018-Apr-11 21:58N 53°30' E 009°56'0 0.0
2018-Apr-11 21:29N 53°30' E 009°56'0 0.0
2018-Apr-11 20:59N 53°30' E 009°56'0 0.3
2018-Apr-11 20:30N 53°30' E 009°56'2 4.7
2018-Apr-11 20:00N 53°32' E 009°55'510.2
2018-Apr-11 19:30N 53°33' E 009°47'612.1
2018-Apr-11 19:00N 53°35' E 009°37'612.6
2018-Apr-11 18:30N 53°40' E 009°31'612.4
2018-Apr-11 18:00N 53°45' E 009°25'611.8
2018-Apr-11 17:30N 53°50' E 009°20'611.4
2018-Apr-11 17:00N 53°53' E 009°12'5 9.7
2018-Apr-11 16:30N 53°52' E 009°04'510.5
2018-Apr-11 16:00N 53°51' E 008°55'511.0
2018-Apr-11 15:30N 53°51' E 008°46'611.2
2018-Apr-11 15:00N 53°55' E 008°40'611.8
2018-Apr-11 14:30N 53°58' E 008°31'612.3
2018-Apr-11 14:00N 53°59' E 008°21'611.8
2018-Apr-11 13:28N 53°59' E 008°10'510.3
2018-Apr-11 13:00N 53°59' E 008°02'711.0
2018-Apr-11 12:19N 53°57' E 007°50'  

Dump ship's entire track history